sensor_id;sensor_type;location;lat;lon;timestamp;temperature;humidity
55036;DHT22;40936;53.008;6.556;2023-02-03T00:00:46;12.20;99.90
55036;DHT22;40936;53.008;6.556;2023-02-03T00:03:11;12.00;99.90
55036;DHT22;40936;53.008;6.556;2023-02-03T00:05:38;12.00;99.90
55036;DHT22;40936;53.008;6.556;2023-02-03T00:08:04;12.40;99.90
55036;DHT22;40936;53.008;6.556;2023-02-03T00:10:35;11.30;99.90
55036;DHT22;40936;53.008;6.556;2023-02-03T00:13:02;12.50;99.90
55036;DHT22;40936;53.008;6.556;2023-02-03T00:15:28;11.60;99.90
55036;DHT22;40936;53.008;6.556;2023-02-03T00:17:54;12.50;99.90
55036;DHT22;40936;53.008;6.556;2023-02-03T00:20:20;12.00;99.90
55036;DHT22;40936;53.008;6.556;2023-02-03T00:22:46;11.60;99.90
55036;DHT22;40936;53.008;6.556;2023-02-03T00:25:12;11.90;99.90
55036;DHT22;40936;53.008;6.556;2023-02-03T00:27:38;11.60;99.90
55036;DHT22;40936;53.008;6.556;2023-02-03T00:30:04;11.50;99.90
55036;DHT22;40936;53.008;6.556;2023-02-03T00:32:29;12.30;99.90
55036;DHT22;40936;53.008;6.556;2023-02-03T00:34:55;11.60;99.90
55036;DHT22;40936;53.008;6.556;2023-02-03T00:37:21;11.90;99.90
55036;DHT22;40936;53.008;6.556;2023-02-03T00:39:48;12.40;99.90
55036;DHT22;40936;53.008;6.556;2023-02-03T00:42:14;12.20;99.90
55036;DHT22;40936;53.008;6.556;2023-02-03T00:44:40;11.80;99.90
55036;DHT22;40936;53.008;6.556;2023-02-03T00:47:06;11.70;99.90
55036;DHT22;40936;53.008;6.556;2023-02-03T00:49:31;11.70;99.90
55036;DHT22;40936;53.008;6.556;2023-02-03T00:51:57;11.90;99.90
55036;DHT22;40936;53.008;6.556;2023-02-03T00:54:23;12.90;99.90
55036;DHT22;40936;53.008;6.556;2023-02-03T00:56:48;12.10;99.90
55036;DHT22;40936;53.008;6.556;2023-02-03T00:59:14;13.20;99.90
55036;DHT22;40936;53.008;6.556;2023-02-03T01:01:40;11.70;99.90
55036;DHT22;40936;53.008;6.556;2023-02-03T01:04:05;11.60;99.90
55036;DHT22;40936;53.008;6.556;2023-02-03T01:06:31;12.20;99.90
55036;DHT22;40936;53.008;6.556;2023-02-03T01:08:57;11.60;99.90
55036;DHT22;40936;53.008;6.556;2023-02-03T01:11:25;11.70;99.90
55036;DHT22;40936;53.008;6.556;2023-02-03T01:13:53;11.90;99.90
55036;DHT22;40936;53.008;6.556;2023-02-03T01:16:20;11.70;99.90
55036;DHT22;40936;53.008;6.556;2023-02-03T01:18:47;12.10;99.90
55036;DHT22;40936;53.008;6.556;2023-02-03T01:21:16;12.10;99.90
55036;DHT22;40936;53.008;6.556;2023-02-03T01:23:42;12.00;99.90
55036;DHT22;40936;53.008;6.556;2023-02-03T01:26:11;12.10;99.90
55036;DHT22;40936;53.008;6.556;2023-02-03T01:28:38;11.80;99.90
55036;DHT22;40936;53.008;6.556;2023-02-03T01:31:18;12.00;99.90
55036;DHT22;40936;53.008;6.556;2023-02-03T01:33:45;12.00;99.90
55036;DHT22;40936;53.008;6.556;2023-02-03T01:36:14;11.80;99.90
55036;DHT22;40936;53.008;6.556;2023-02-03T01:38:40;11.90;99.90
55036;DHT22;40936;53.008;6.556;2023-02-03T01:41:08;11.80;99.90
55036;DHT22;40936;53.008;6.556;2023-02-03T01:43:37;11.80;99.90
55036;DHT22;40936;53.008;6.556;2023-02-03T01:46:30;11.90;99.90
55036;DHT22;40936;53.008;6.556;2023-02-03T01:49:07;12.00;99.90
55036;DHT22;40936;53.008;6.556;2023-02-03T01:51:35;12.00;99.90
55036;DHT22;40936;53.008;6.556;2023-02-03T01:54:02;9.80;99.90
55036;DHT22;40936;53.008;6.556;2023-02-03T01:56:31;11.90;99.90
55036;DHT22;40936;53.008;6.556;2023-02-03T01:58:58;12.00;99.90
55036;DHT22;40936;53.008;6.556;2023-02-03T02:01:25;12.00;99.90
55036;DHT22;40936;53.008;6.556;2023-02-03T02:03:54;11.90;1.00
55036;DHT22;40936;53.008;6.556;2023-02-03T02:06:21;12.00;99.90
55036;DHT22;40936;53.008;6.556;2023-02-03T02:08:50;12.00;99.90
55036;DHT22;40936;53.008;6.556;2023-02-03T02:13:44;10.80;1.00
55036;DHT22;40936;53.008;6.556;2023-02-03T02:16:52;11.90;1.00
55036;DHT22;40936;53.008;6.556;2023-02-03T02:20:24;12.00;1.00
55036;DHT22;40936;53.008;6.556;2023-02-03T02:22:50;12.10;99.90
55036;DHT22;40936;53.008;6.556;2023-02-03T02:25:43;12.00;1.00
55036;DHT22;40936;53.008;6.556;2023-02-03T02:31:29;12.00;99.90
55036;DHT22;40936;53.008;6.556;2023-02-03T02:34:01;12.00;99.90
55036;DHT22;40936;53.008;6.556;2023-02-03T02:39:17;12.00;99.90
55036;DHT22;40936;53.008;6.556;2023-02-03T02:41:59;12.00;99.90
55036;DHT22;40936;53.008;6.556;2023-02-03T02:44:30;12.10;99.90
55036;DHT22;40936;53.008;6.556;2023-02-03T02:47:01;12.10;99.90
55036;DHT22;40936;53.008;6.556;2023-02-03T02:49:36;12.20;44.40
55036;DHT22;40936;53.008;6.556;2023-02-03T02:52:05;12.10;99.90
55036;DHT22;40936;53.008;6.556;2023-02-03T02:54:32;12.10;25.40
55036;DHT22;40936;53.008;6.556;2023-02-03T02:57:02;12.10;1.00
55036;DHT22;40936;53.008;6.556;2023-02-03T02:59:29;12.20;1.00
55036;DHT22;40936;53.008;6.556;2023-02-03T03:01:54;12.20;1.00
55036;DHT22;40936;53.008;6.556;2023-02-03T03:04:26;12.20;1.00
55036;DHT22;40936;53.008;6.556;2023-02-03T03:07:00;12.20;1.00
55036;DHT22;40936;53.008;6.556;2023-02-03T03:09:33;12.10;1.00
55036;DHT22;40936;53.008;6.556;2023-02-03T03:12:06;12.10;1.00
55036;DHT22;40936;53.008;6.556;2023-02-03T03:14:35;12.10;1.00
55036;DHT22;40936;53.008;6.556;2023-02-03T03:17:06;12.10;1.00
55036;DHT22;40936;53.008;6.556;2023-02-03T03:19:34;12.10;1.00
55036;DHT22;40936;53.008;6.556;2023-02-03T03:22:05;10.60;1.00
55036;DHT22;40936;53.008;6.556;2023-02-03T03:24:44;12.10;99.90
55036;DHT22;40936;53.008;6.556;2023-02-03T03:27:22;12.10;1.00
55036;DHT22;40936;53.008;6.556;2023-02-03T03:32:21;12.10;1.00
55036;DHT22;40936;53.008;6.556;2023-02-03T03:34:47;12.10;1.00
55036;DHT22;40936;53.008;6.556;2023-02-03T03:39:56;12.20;99.90
55036;DHT22;40936;53.008;6.556;2023-02-03T03:42:39;12.20;1.00
55036;DHT22;40936;53.008;6.556;2023-02-03T03:47:58;12.20;1.00
55036;DHT22;40936;53.008;6.556;2023-02-03T03:50:38;12.20;1.00
55036;DHT22;40936;53.008;6.556;2023-02-03T03:53:06;12.20;1.00
55036;DHT22;40936;53.008;6.556;2023-02-03T03:55:34;12.20;1.00
55036;DHT22;40936;53.008;6.556;2023-02-03T03:58:13;12.30;1.00
55036;DHT22;40936;53.008;6.556;2023-02-03T04:00:41;12.30;99.90
55036;DHT22;40936;53.008;6.556;2023-02-03T04:03:14;12.30;99.90
55036;DHT22;40936;53.008;6.556;2023-02-03T04:05:41;12.30;99.90
55036;DHT22;40936;53.008;6.556;2023-02-03T04:08:07;12.30;99.90
55036;DHT22;40936;53.008;6.556;2023-02-03T04:10:38;12.30;99.90
55036;DHT22;40936;53.008;6.556;2023-02-03T04:13:05;12.30;99.90
55036;DHT22;40936;53.008;6.556;2023-02-03T04:15:31;12.40;99.90
55036;DHT22;40936;53.008;6.556;2023-02-03T04:17:57;12.40;99.90
55036;DHT22;40936;53.008;6.556;2023-02-03T04:20:26;12.40;99.90
55036;DHT22;40936;53.008;6.556;2023-02-03T04:22:52;12.40;99.90
55036;DHT22;40936;53.008;6.556;2023-02-03T04:25:18;12.40;99.90
55036;DHT22;40936;53.008;6.556;2023-02-03T04:27:44;12.50;99.90
55036;DHT22;40936;53.008;6.556;2023-02-03T04:30:10;12.50;99.90
55036;DHT22;40936;53.008;6.556;2023-02-03T04:32:36;12.50;99.90
55036;DHT22;40936;53.008;6.556;2023-02-03T04:35:03;12.40;99.90
55036;DHT22;40936;53.008;6.556;2023-02-03T04:37:29;12.40;99.90
55036;DHT22;40936;53.008;6.556;2023-02-03T04:39:55;12.50;99.90
55036;DHT22;40936;53.008;6.556;2023-02-03T04:42:22;12.50;99.90
55036;DHT22;40936;53.008;6.556;2023-02-03T04:44:48;12.40;99.90
55036;DHT22;40936;53.008;6.556;2023-02-03T04:47:14;12.50;99.90
55036;DHT22;40936;53.008;6.556;2023-02-03T04:49:40;12.40;99.90
55036;DHT22;40936;53.008;6.556;2023-02-03T04:52:06;12.40;99.90
55036;DHT22;40936;53.008;6.556;2023-02-03T04:54:31;12.40;99.90
55036;DHT22;40936;53.008;6.556;2023-02-03T04:56:58;12.30;99.90
55036;DHT22;40936;53.008;6.556;2023-02-03T04:59:24;12.40;99.90
55036;DHT22;40936;53.008;6.556;2023-02-03T05:01:50;12.40;99.90
55036;DHT22;40936;53.008;6.556;2023-02-03T05:04:16;12.40;99.90
55036;DHT22;40936;53.008;6.556;2023-02-03T05:06:41;12.40;99.90
55036;DHT22;40936;53.008;6.556;2023-02-03T05:09:07;12.40;99.90
55036;DHT22;40936;53.008;6.556;2023-02-03T05:11:33;12.40;99.90
55036;DHT22;40936;53.008;6.556;2023-02-03T05:13:58;12.40;99.90
55036;DHT22;40936;53.008;6.556;2023-02-03T05:16:24;12.40;99.90
55036;DHT22;40936;53.008;6.556;2023-02-03T05:18:50;12.30;99.90
55036;DHT22;40936;53.008;6.556;2023-02-03T05:21:16;12.40;99.90
55036;DHT22;40936;53.008;6.556;2023-02-03T05:23:41;12.30;99.90
55036;DHT22;40936;53.008;6.556;2023-02-03T05:26:08;12.40;99.90
55036;DHT22;40936;53.008;6.556;2023-02-03T05:28:33;12.40;99.90
55036;DHT22;40936;53.008;6.556;2023-02-03T05:31:00;12.40;99.90
55036;DHT22;40936;53.008;6.556;2023-02-03T05:33:27;12.40;99.90
55036;DHT22;40936;53.008;6.556;2023-02-03T05:35:53;12.40;99.90
55036;DHT22;40936;53.008;6.556;2023-02-03T05:38:18;12.40;99.90
55036;DHT22;40936;53.008;6.556;2023-02-03T05:40:50;12.40;99.90
55036;DHT22;40936;53.008;6.556;2023-02-03T05:43:35;12.30;99.90
55036;DHT22;40936;53.008;6.556;2023-02-03T05:46:05;12.30;99.90
55036;DHT22;40936;53.008;6.556;2023-02-03T05:48:31;12.30;99.90
55036;DHT22;40936;53.008;6.556;2023-02-03T05:50:57;12.30;99.90
55036;DHT22;40936;53.008;6.556;2023-02-03T05:53:23;12.30;99.90
55036;DHT22;40936;53.008;6.556;2023-02-03T05:55:50;12.30;99.90
55036;DHT22;40936;53.008;6.556;2023-02-03T05:58:16;12.40;99.90
55036;DHT22;40936;53.008;6.556;2023-02-03T06:00:42;12.40;99.90
55036;DHT22;40936;53.008;6.556;2023-02-03T06:03:08;12.40;99.90
55036;DHT22;40936;53.008;6.556;2023-02-03T06:05:34;12.30;99.90
55036;DHT22;40936;53.008;6.556;2023-02-03T06:08:06;12.40;99.90
55036;DHT22;40936;53.008;6.556;2023-02-03T06:10:32;12.30;99.90
55036;DHT22;40936;53.008;6.556;2023-02-03T06:12:58;12.30;99.90
55036;DHT22;40936;53.008;6.556;2023-02-03T06:15:24;12.30;99.90
55036;DHT22;40936;53.008;6.556;2023-02-03T06:17:50;12.30;99.90
55036;DHT22;40936;53.008;6.556;2023-02-03T06:20:18;12.30;99.90
55036;DHT22;40936;53.008;6.556;2023-02-03T06:22:44;12.30;99.90
55036;DHT22;40936;53.008;6.556;2023-02-03T06:25:10;12.40;99.90
55036;DHT22;40936;53.008;6.556;2023-02-03T06:27:36;12.30;99.90
55036;DHT22;40936;53.008;6.556;2023-02-03T06:30:02;12.30;99.90
55036;DHT22;40936;53.008;6.556;2023-02-03T06:32:28;12.30;99.90
55036;DHT22;40936;53.008;6.556;2023-02-03T06:34:54;12.30;99.90
55036;DHT22;40936;53.008;6.556;2023-02-03T06:37:20;12.30;99.90
55036;DHT22;40936;53.008;6.556;2023-02-03T06:39:45;12.30;99.90
55036;DHT22;40936;53.008;6.556;2023-02-03T06:42:11;12.30;99.90
55036;DHT22;40936;53.008;6.556;2023-02-03T06:44:37;12.30;99.90
55036;DHT22;40936;53.008;6.556;2023-02-03T06:47:02;12.40;99.90
55036;DHT22;40936;53.008;6.556;2023-02-03T06:49:29;12.40;99.90
55036;DHT22;40936;53.008;6.556;2023-02-03T06:51:55;12.40;99.90
55036;DHT22;40936;53.008;6.556;2023-02-03T06:54:21;12.30;99.90
55036;DHT22;40936;53.008;6.556;2023-02-03T06:56:46;12.40;99.90
55036;DHT22;40936;53.008;6.556;2023-02-03T06:59:13;12.30;99.90
55036;DHT22;40936;53.008;6.556;2023-02-03T07:01:38;12.40;99.90
55036;DHT22;40936;53.008;6.556;2023-02-03T07:04:04;12.40;99.90
55036;DHT22;40936;53.008;6.556;2023-02-03T07:06:31;12.30;99.90
55036;DHT22;40936;53.008;6.556;2023-02-03T07:09:03;12.30;99.90
55036;DHT22;40936;53.008;6.556;2023-02-03T07:11:30;12.30;99.90
55036;DHT22;40936;53.008;6.556;2023-02-03T07:13:55;12.30;99.90
55036;DHT22;40936;53.008;6.556;2023-02-03T07:16:21;12.30;99.90
55036;DHT22;40936;53.008;6.556;2023-02-03T07:18:47;12.30;99.90
55036;DHT22;40936;53.008;6.556;2023-02-03T07:21:14;12.30;99.90
55036;DHT22;40936;53.008;6.556;2023-02-03T07:23:40;12.20;99.90
55036;DHT22;40936;53.008;6.556;2023-02-03T07:26:06;11.20;1.00
55036;DHT22;40936;53.008;6.556;2023-02-03T07:28:33;12.00;99.90
55036;DHT22;40936;53.008;6.556;2023-02-03T07:30:59;12.00;1.00
55036;DHT22;40936;53.008;6.556;2023-02-03T07:33:26;12.00;1.00
55036;DHT22;40936;53.008;6.556;2023-02-03T07:35:57;11.90;1.00
55036;DHT22;40936;53.008;6.556;2023-02-03T07:38:25;11.90;1.00
55036;DHT22;40936;53.008;6.556;2023-02-03T07:40:51;11.80;1.00
55036;DHT22;40936;53.008;6.556;2023-02-03T07:43:17;11.90;27.90
55036;DHT22;40936;53.008;6.556;2023-02-03T07:45:43;11.80;63.70
55036;DHT22;40936;53.008;6.556;2023-02-03T07:48:10;11.80;78.60
55036;DHT22;40936;53.008;6.556;2023-02-03T07:50:35;12.00;99.90
55036;DHT22;40936;53.008;6.556;2023-02-03T07:53:01;11.80;99.90
55036;DHT22;40936;53.008;6.556;2023-02-03T07:55:28;11.80;99.90
55036;DHT22;40936;53.008;6.556;2023-02-03T07:57:57;11.80;99.90
55036;DHT22;40936;53.008;6.556;2023-02-03T08:00:23;11.80;99.90
55036;DHT22;40936;53.008;6.556;2023-02-03T08:02:49;11.80;99.90
55036;DHT22;40936;53.008;6.556;2023-02-03T08:05:16;11.90;99.90
55036;DHT22;40936;53.008;6.556;2023-02-03T08:07:42;11.90;99.90
55036;DHT22;40936;53.008;6.556;2023-02-03T08:10:09;11.90;99.90
55036;DHT22;40936;53.008;6.556;2023-02-03T08:12:35;11.90;99.90
55036;DHT22;40936;53.008;6.556;2023-02-03T08:15:01;11.90;99.90
55036;DHT22;40936;53.008;6.556;2023-02-03T08:17:27;12.00;99.90
55036;DHT22;40936;53.008;6.556;2023-02-03T08:19:53;11.90;99.90
55036;DHT22;40936;53.008;6.556;2023-02-03T08:22:18;11.90;99.90
55036;DHT22;40936;53.008;6.556;2023-02-03T08:24:45;11.90;99.90
55036;DHT22;40936;53.008;6.556;2023-02-03T08:27:16;12.00;99.90
55036;DHT22;40936;53.008;6.556;2023-02-03T08:29:43;12.00;99.90
55036;DHT22;40936;53.008;6.556;2023-02-03T08:32:11;12.10;99.90
55036;DHT22;40936;53.008;6.556;2023-02-03T08:34:37;12.00;99.90
55036;DHT22;40936;53.008;6.556;2023-02-03T08:37:03;12.00;99.90
55036;DHT22;40936;53.008;6.556;2023-02-03T08:39:29;12.00;99.90
55036;DHT22;40936;53.008;6.556;2023-02-03T08:41:55;11.90;99.90
55036;DHT22;40936;53.008;6.556;2023-02-03T08:44:20;11.90;1.00
55036;DHT22;40936;53.008;6.556;2023-02-03T08:46:50;12.00;12.60
55036;DHT22;40936;53.008;6.556;2023-02-03T08:49:17;12.00;96.20
55036;DHT22;40936;53.008;6.556;2023-02-03T08:51:44;11.90;99.90
55036;DHT22;40936;53.008;6.556;2023-02-03T08:54:10;11.90;99.90
55036;DHT22;40936;53.008;6.556;2023-02-03T08:56:36;12.00;99.90
55036;DHT22;40936;53.008;6.556;2023-02-03T08:59:01;12.00;99.90
55036;DHT22;40936;53.008;6.556;2023-02-03T09:01:27;12.00;99.90
55036;DHT22;40936;53.008;6.556;2023-02-03T09:03:53;12.00;99.90
55036;DHT22;40936;53.008;6.556;2023-02-03T09:06:19;12.00;99.90
55036;DHT22;40936;53.008;6.556;2023-02-03T09:08:45;12.00;99.90
55036;DHT22;40936;53.008;6.556;2023-02-03T09:11:16;12.00;99.90
55036;DHT22;40936;53.008;6.556;2023-02-03T09:13:43;12.00;99.90
55036;DHT22;40936;53.008;6.556;2023-02-03T09:16:15;12.10;99.90
55036;DHT22;40936;53.008;6.556;2023-02-03T09:18:45;12.10;78.70
55036;DHT22;40936;53.008;6.556;2023-02-03T09:21:11;12.10;81.20
55036;DHT22;40936;53.008;6.556;2023-02-03T09:23:38;12.10;99.90
55036;DHT22;40936;53.008;6.556;2023-02-03T09:26:06;12.10;80.10
55036;DHT22;40936;53.008;6.556;2023-02-03T09:28:33;12.10;99.90
55036;DHT22;40936;53.008;6.556;2023-02-03T09:31:04;12.10;86.90
55036;DHT22;40936;53.008;6.556;2023-02-03T09:33:31;12.30;91.00
55036;DHT22;40936;53.008;6.556;2023-02-03T09:35:57;12.10;75.40
55036;DHT22;40936;53.008;6.556;2023-02-03T09:38:24;12.20;34.50
55036;DHT22;40936;53.008;6.556;2023-02-03T09:43:47;12.10;14.90
55036;DHT22;40936;53.008;6.556;2023-02-03T09:46:23;12.20;16.10
55036;DHT22;40936;53.008;6.556;2023-02-03T09:48:58;12.20;1.30
55036;DHT22;40936;53.008;6.556;2023-02-03T09:51:45;12.20;1.00
55036;DHT22;40936;53.008;6.556;2023-02-03T09:54:26;12.20;1.00
55036;DHT22;40936;53.008;6.556;2023-02-03T09:56:56;12.20;1.00
55036;DHT22;40936;53.008;6.556;2023-02-03T09:59:25;12.20;1.00
55036;DHT22;40936;53.008;6.556;2023-02-03T10:04:36;12.20;99.90
55036;DHT22;40936;53.008;6.556;2023-02-03T10:07:17;12.30;1.00
55036;DHT22;40936;53.008;6.556;2023-02-03T10:18:37;12.40;99.90
55036;DHT22;40936;53.008;6.556;2023-02-03T10:21:31;12.40;99.90
55036;DHT22;40936;53.008;6.556;2023-02-03T10:23:59;12.50;99.90
55036;DHT22;40936;53.008;6.556;2023-02-03T10:26:27;12.50;99.90
55036;DHT22;40936;53.008;6.556;2023-02-03T10:31:23;12.60;99.90
55036;DHT22;40936;53.008;6.556;2023-02-03T10:34:09;12.60;99.90
55036;DHT22;40936;53.008;6.556;2023-02-03T10:36:56;12.60;99.90
55036;DHT22;40936;53.008;6.556;2023-02-03T10:41:58;12.60;99.90
55036;DHT22;40936;53.008;6.556;2023-02-03T10:49:51;12.70;30.00
55036;DHT22;40936;53.008;6.556;2023-02-03T10:52:24;12.70;1.00
55036;DHT22;40936;53.008;6.556;2023-02-03T10:54:50;12.70;1.00
55036;DHT22;40936;53.008;6.556;2023-02-03T10:57:15;12.80;1.00
55036;DHT22;40936;53.008;6.556;2023-02-03T10:59:44;12.80;1.00
55036;DHT22;40936;53.008;6.556;2023-02-03T11:04:45;12.80;1.00
55036;DHT22;40936;53.008;6.556;2023-02-03T11:07:23;12.80;1.00
55036;DHT22;40936;53.008;6.556;2023-02-03T11:09:49;12.80;1.00
55036;DHT22;40936;53.008;6.556;2023-02-03T11:12:19;12.70;1.00
55036;DHT22;40936;53.008;6.556;2023-02-03T11:14:46;12.70;1.00
55036;DHT22;40936;53.008;6.556;2023-02-03T11:17:23;12.70;1.00
55036;DHT22;40936;53.008;6.556;2023-02-03T11:19:52;12.60;99.90
55036;DHT22;40936;53.008;6.556;2023-02-03T11:22:34;12.50;99.90
55036;DHT22;40936;53.008;6.556;2023-02-03T11:25:02;12.50;99.90
55036;DHT22;40936;53.008;6.556;2023-02-03T11:27:30;12.50;99.90
55036;DHT22;40936;53.008;6.556;2023-02-03T11:30:16;12.40;99.90
55036;DHT22;40936;53.008;6.556;2023-02-03T11:32:46;12.40;99.90
55036;DHT22;40936;53.008;6.556;2023-02-03T11:37:40;12.40;99.90
55036;DHT22;40936;53.008;6.556;2023-02-03T11:42:32;12.30;99.90
55036;DHT22;40936;53.008;6.556;2023-02-03T11:45:26;12.30;99.90
55036;DHT22;40936;53.008;6.556;2023-02-03T12:20:46;12.50;99.90
55036;DHT22;40936;53.008;6.556;2023-02-03T12:23:38;12.50;99.90
55036;DHT22;40936;53.008;6.556;2023-02-03T12:28:49;12.50;99.90
55036;DHT22;40936;53.008;6.556;2023-02-03T12:34:22;12.30;99.90
55036;DHT22;40936;53.008;6.556;2023-02-03T12:36:55;12.30;99.90
55036;DHT22;40936;53.008;6.556;2023-02-03T12:42:23;12.30;93.30
55036;DHT22;40936;53.008;6.556;2023-02-03T12:56:00;12.40;50.60
55036;DHT22;40936;53.008;6.556;2023-02-03T12:58:51;12.30;13.00
55036;DHT22;40936;53.008;6.556;2023-02-03T13:04:02;12.10;25.70
55036;DHT22;40936;53.008;6.556;2023-02-03T13:09:19;12.10;4.90
55036;DHT22;40936;53.008;6.556;2023-02-03T13:12:27;12.10;4.00
55036;DHT22;40936;53.008;6.556;2023-02-03T13:14:56;12.10;1.00
55036;DHT22;40936;53.008;6.556;2023-02-03T13:17:48;12.20;1.00
55036;DHT22;40936;53.008;6.556;2023-02-03T13:20:24;12.20;1.00
55036;DHT22;40936;53.008;6.556;2023-02-03T13:22:51;12.30;1.00
55036;DHT22;40936;53.008;6.556;2023-02-03T13:41:53;12.60;1.00
55036;DHT22;40936;53.008;6.556;2023-02-03T13:44:24;12.60;1.00
55036;DHT22;40936;53.008;6.556;2023-02-03T13:46:55;12.60;1.00
55036;DHT22;40936;53.008;6.556;2023-02-03T13:49:28;12.70;1.00
55036;DHT22;40936;53.008;6.556;2023-02-03T13:51:54;12.60;1.00
55036;DHT22;40936;53.008;6.556;2023-02-03T13:54:27;12.60;1.00
55036;DHT22;40936;53.008;6.556;2023-02-03T13:56:58;12.50;1.00
55036;DHT22;40936;53.008;6.556;2023-02-03T13:59:41;12.50;1.00
55036;DHT22;40936;53.008;6.556;2023-02-03T14:04:55;12.30;1.00
55036;DHT22;40936;53.008;6.556;2023-02-03T14:07:32;12.30;1.00
55036;DHT22;40936;53.008;6.556;2023-02-03T14:22:56;12.10;1.00
55036;DHT22;40936;53.008;6.556;2023-02-03T14:25:23;12.00;1.00
55036;DHT22;40936;53.008;6.556;2023-02-03T14:28:01;12.00;1.00
55036;DHT22;40936;53.008;6.556;2023-02-03T14:30:28;12.00;1.00
55036;DHT22;40936;53.008;6.556;2023-02-03T14:32:58;12.00;1.00
55036;DHT22;40936;53.008;6.556;2023-02-03T14:35:33;12.00;1.00
55036;DHT22;40936;53.008;6.556;2023-02-03T14:38:12;11.90;1.00
55036;DHT22;40936;53.008;6.556;2023-02-03T14:54:26;11.60;1.00
55036;DHT22;40936;53.008;6.556;2023-02-03T15:00:06;11.70;1.00
55036;DHT22;40936;53.008;6.556;2023-02-03T15:02:35;11.60;1.00
55036;DHT22;40936;53.008;6.556;2023-02-03T15:07:40;11.60;1.00
55036;DHT22;40936;53.008;6.556;2023-02-03T15:10:21;12.10;1.00
55036;DHT22;40936;53.008;6.556;2023-02-03T15:12:52;11.60;1.00
55036;DHT22;40936;53.008;6.556;2023-02-03T15:15:23;12.00;1.00
55036;DHT22;40936;53.008;6.556;2023-02-03T15:17:50;11.50;1.00
55036;DHT22;40936;53.008;6.556;2023-02-03T15:22:45;11.50;1.00
55036;DHT22;40936;53.008;6.556;2023-02-03T15:25:18;11.40;1.00
55036;DHT22;40936;53.008;6.556;2023-02-03T15:27:44;11.40;1.00
55036;DHT22;40936;53.008;6.556;2023-02-03T15:30:30;11.40;1.00
55036;DHT22;40936;53.008;6.556;2023-02-03T15:33:21;11.40;1.00
55036;DHT22;40936;53.008;6.556;2023-02-03T15:35:49;11.30;1.00
55036;DHT22;40936;53.008;6.556;2023-02-03T15:38:24;11.30;1.00
55036;DHT22;40936;53.008;6.556;2023-02-03T15:40:55;11.20;1.00
55036;DHT22;40936;53.008;6.556;2023-02-03T15:43:32;11.20;1.00
55036;DHT22;40936;53.008;6.556;2023-02-03T15:49:09;11.10;1.00
55036;DHT22;40936;53.008;6.556;2023-02-03T15:51:46;11.00;1.00
55036;DHT22;40936;53.008;6.556;2023-02-03T15:57:08;10.80;1.00
55036;DHT22;40936;53.008;6.556;2023-02-03T15:59:42;10.70;1.00
55036;DHT22;40936;53.008;6.556;2023-02-03T16:02:41;10.70;1.00
55036;DHT22;40936;53.008;6.556;2023-02-03T16:05:26;10.70;1.00
55036;DHT22;40936;53.008;6.556;2023-02-03T16:07:53;10.70;1.00
55036;DHT22;40936;53.008;6.556;2023-02-03T16:10:32;10.60;1.00
55036;DHT22;40936;53.008;6.556;2023-02-03T16:13:18;10.60;1.00
55036;DHT22;40936;53.008;6.556;2023-02-03T16:16:06;10.40;1.00
55036;DHT22;40936;53.008;6.556;2023-02-03T16:18:35;10.40;1.00
55036;DHT22;40936;53.008;6.556;2023-02-03T16:21:03;10.50;1.00
55036;DHT22;40936;53.008;6.556;2023-02-03T16:23:29;10.40;1.00
55036;DHT22;40936;53.008;6.556;2023-02-03T16:28:31;10.40;1.00
55036;DHT22;40936;53.008;6.556;2023-02-03T16:31:17;10.40;1.00
55036;DHT22;40936;53.008;6.556;2023-02-03T16:34:15;10.40;1.00
55036;DHT22;40936;53.008;6.556;2023-02-03T16:37:00;10.40;1.00
55036;DHT22;40936;53.008;6.556;2023-02-03T16:39:44;10.00;1.00
55036;DHT22;40936;53.008;6.556;2023-02-03T16:42:39;10.30;1.00
55036;DHT22;40936;53.008;6.556;2023-02-03T16:48:11;10.30;1.00
55036;DHT22;40936;53.008;6.556;2023-02-03T16:50:56;10.30;1.00
55036;DHT22;40936;53.008;6.556;2023-02-03T16:53:29;10.30;1.00
55036;DHT22;40936;53.008;6.556;2023-02-03T16:55:59;10.30;1.00
55036;DHT22;40936;53.008;6.556;2023-02-03T16:58:25;10.30;1.00
55036;DHT22;40936;53.008;6.556;2023-02-03T17:00:52;10.30;1.00
55036;DHT22;40936;53.008;6.556;2023-02-03T17:03:23;9.90;1.00
55036;DHT22;40936;53.008;6.556;2023-02-03T17:05:49;10.70;1.00
55036;DHT22;40936;53.008;6.556;2023-02-03T17:08:17;12.30;1.00
55036;DHT22;40936;53.008;6.556;2023-02-03T17:10:45;10.30;1.00
55036;DHT22;40936;53.008;6.556;2023-02-03T17:13:13;10.30;1.00
55036;DHT22;40936;53.008;6.556;2023-02-03T17:15:48;10.30;1.00
55036;DHT22;40936;53.008;6.556;2023-02-03T17:18:14;9.30;1.00
55036;DHT22;40936;53.008;6.556;2023-02-03T17:20:41;10.10;1.00
55036;DHT22;40936;53.008;6.556;2023-02-03T17:23:07;10.30;1.00
55036;DHT22;40936;53.008;6.556;2023-02-03T17:25:34;10.40;1.00
55036;DHT22;40936;53.008;6.556;2023-02-03T17:28:04;10.30;1.00
55036;DHT22;40936;53.008;6.556;2023-02-03T17:30:30;10.30;1.00
55036;DHT22;40936;53.008;6.556;2023-02-03T17:33:01;10.30;1.00
55036;DHT22;40936;53.008;6.556;2023-02-03T17:35:27;10.30;1.00
55036;DHT22;40936;53.008;6.556;2023-02-03T17:37:53;10.30;1.00
55036;DHT22;40936;53.008;6.556;2023-02-03T17:40:19;10.30;1.00
55036;DHT22;40936;53.008;6.556;2023-02-03T17:42:45;10.30;1.00
55036;DHT22;40936;53.008;6.556;2023-02-03T17:45:11;10.20;1.00
55036;DHT22;40936;53.008;6.556;2023-02-03T17:47:36;10.20;1.00
55036;DHT22;40936;53.008;6.556;2023-02-03T17:50:02;10.20;1.00
55036;DHT22;40936;53.008;6.556;2023-02-03T17:52:28;10.70;1.00
55036;DHT22;40936;53.008;6.556;2023-02-03T17:54:54;10.10;1.00
55036;DHT22;40936;53.008;6.556;2023-02-03T17:57:19;10.10;1.00
55036;DHT22;40936;53.008;6.556;2023-02-03T17:59:46;10.10;1.00
55036;DHT22;40936;53.008;6.556;2023-02-03T18:02:11;10.10;1.00
55036;DHT22;40936;53.008;6.556;2023-02-03T18:07:03;10.10;1.00
55036;DHT22;40936;53.008;6.556;2023-02-03T18:09:29;10.00;1.00
55036;DHT22;40936;53.008;6.556;2023-02-03T18:11:55;9.90;1.00
55036;DHT22;40936;53.008;6.556;2023-02-03T18:14:20;8.20;1.00
55036;DHT22;40936;53.008;6.556;2023-02-03T18:16:46;10.20;1.00
55036;DHT22;40936;53.008;6.556;2023-02-03T18:19:14;10.80;1.00
55036;DHT22;40936;53.008;6.556;2023-02-03T18:21:41;9.80;1.00
55036;DHT22;40936;53.008;6.556;2023-02-03T18:24:08;9.70;1.00
55036;DHT22;40936;53.008;6.556;2023-02-03T18:26:34;9.70;1.00
55036;DHT22;40936;53.008;6.556;2023-02-03T18:29:04;9.70;1.00
55036;DHT22;40936;53.008;6.556;2023-02-03T18:31:30;10.00;1.00
55036;DHT22;40936;53.008;6.556;2023-02-03T18:34:00;9.70;1.00
55036;DHT22;40936;53.008;6.556;2023-02-03T18:36:27;9.70;1.00
55036;DHT22;40936;53.008;6.556;2023-02-03T18:38:52;9.70;1.00
55036;DHT22;40936;53.008;6.556;2023-02-03T18:41:23;9.80;1.00
55036;DHT22;40936;53.008;6.556;2023-02-03T18:43:49;8.80;1.00
55036;DHT22;40936;53.008;6.556;2023-02-03T18:46:21;9.20;1.00
55036;DHT22;40936;53.008;6.556;2023-02-03T18:48:47;9.70;1.00